• Join FlightAware (Why Join?)
  • Login
  • US Flag 
09:01AM EDT


 

Airport Tracker/Info


-or-


 

Live Flight TrackerFlight Track Log ✈ AAR214 ✈ 08-Aug-2013 ✈ RKSI / ICN - KSFO

Flight Track Log - Related Links

Times and Time Zones

All times are in EDT time to prevent confusion due to time zone crossing. See the AAR214 flight status page for this flight to view local times or setup timezone preferences in your user account.

Time Position Orientation Groundspeed Altitude Reporting Facility
EDT Latitude Longitude Course Direction KTS MPH feet Rate Location/Type
04:00AM 37.5018 127.4866 79° East  Level FlightAware Approximate
04:00AM 37.2830 126.8250 78° East 355 409 10,300  Level FlightAware
04:01AM 37.5185 127.6606 78° East  Level FlightAware Approximate
04:01AM 37.2910 126.9510 85° East 357 411 10,300  Level FlightAware
04:01AM 37.2970 127.0180 84° East 357 411 10,300 180 Level FlightAware
04:02AM 37.3150 127.1300 79° East 363 418 10,600 300 Climbing FlightAware
04:03AM 37.3450 127.1850 56° Northeast 368 423 10,800 1,200 Climbing FlightAware
04:03AM 37.3990 127.2540 45° Northeast 402 463 12,100 2,100 Climbing FlightAware
04:04AM 37.4340 127.3030 48° Northeast 410 472 13,100 840 Climbing FlightAware
04:05AM 37.4770 127.3640 48° Northeast 410 472 13,100  Level FlightAware
04:05AM 37.5160 127.4180 48° Northeast 410 472 13,100  Level FlightAware
04:06AM 37.5550 127.4730 48° Northeast 410 472 13,100 420 Level FlightAware
04:08AM 37.5409 127.7953 78° East  Level FlightAware Approximate
04:09AM 37.5687 127.9679 79° East  Level FlightAware Approximate
04:10AM 37.5959 128.1407 79° East  Level FlightAware Approximate
04:11AM 37.6266 128.3126 77° East  Level FlightAware Approximate
04:12AM 37.6544 128.4849 81° East  Level FlightAware Approximate
04:13AM 37.6770 128.6580 72° East  Level FlightAware Approximate
04:14AM 37.6663 128.8176 122° Southeast  Level FlightAware Approximate
04:15AM 37.5917 128.9666 122° Southeast  Level FlightAware Approximate
04:16AM 37.5174 129.1157 122° Southeast  Level FlightAware Approximate
04:17AM 37.4428 129.2644 122° Southeast  Level FlightAware Approximate
04:18AM 37.3688 129.4134 121° Southeast  Level FlightAware Approximate
04:19AM 37.2960 129.5632 121° Southeast  Level FlightAware Approximate
04:20AM 37.2231 129.7128 121° Southeast  Level FlightAware Approximate
04:21AM 37.1499 129.8620 122° Southeast  Level FlightAware Approximate
04:22AM 37.0766 130.0110 122° Southeast  Level FlightAware Approximate
04:23AM 37.0031 130.1597 122° Southeast  Level FlightAware Approximate
04:24AM 36.9294 130.3081 122° Southeast  Level FlightAware Approximate
04:25AM 36.8555 130.4562 122° Southeast  Level FlightAware Approximate
04:26AM 36.7815 130.6040 122° Southeast  Level FlightAware Approximate
04:27AM 36.7071 130.7514 122° Southeast  Level FlightAware Approximate
04:28AM 36.6324 130.8985 122° Southeast  Level FlightAware Approximate
04:29AM 36.5576 131.0453 122° Southeast  Level FlightAware Approximate
04:30AM 36.4825 131.1917 122° Southeast  Level FlightAware Approximate
04:31AM 36.4073 131.3379 123° Southeast  Level FlightAware Approximate
04:32AM 36.3642 131.4965 92° East  Level FlightAware Approximate
04:33AM 36.3587 131.6697 92° East  Level FlightAware Approximate
04:34AM 36.3530 131.8429 92° East  Level FlightAware Approximate
04:34AM 36.3560 131.9890 92° East 496 571 27,000  Level FlightAware
04:35AM 36.3520 132.1060 92° East 496 571 27,000  Level FlightAware
04:36AM 36.3490 132.1960 92° East 496 571 27,000  Level FlightAware
04:36AM 36.3470 132.2830 92° East 496 571 27,000  Level FlightAware
04:37AM 36.3440 132.3730 92° East 496 571 27,000  Level FlightAware
04:37AM 36.3420 132.4600 92° East 496 571 27,000  Level FlightAware
04:38AM 36.3390 132.5490 92° East 496 571 27,000  Level FlightAware
04:38AM 36.3280 132.7290 94° East 496 571 27,000  Level FlightAware
04:39AM 36.3230 132.8520 93° East 496 571 27,000  Level FlightAware
04:40AM 36.3190 132.9500 93° East 497 572 27,000  Level FlightAware
04:40AM 36.3140 133.0640 93° East 497 572 27,000 60 Level FlightAware
04:41AM 36.3080 133.2060 93° East 498 573 27,100 420 Climbing FlightAware
04:42AM 36.3040 133.2930 93° East 499 574 27,600 840 Climbing FlightAware
04:42AM 36.2990 133.4040 93° East 503 579 28,100 720 Climbing FlightAware
04:43AM 36.2940 133.4950 94° East 507 583 28,500 720 Climbing FlightAware
04:44AM 36.2890 133.6150 93° East 512 589 29,000 420 Climbing FlightAware
04:44AM 36.2850 133.6930 94° East 512 589 29,000  Level FlightAware
04:45AM 36.2790 133.8080 94° East 513 590 29,000  Level FlightAware
04:46AM 36.2720 133.9550 93° East 514 592 29,000  Level FlightAware
04:46AM 36.2670 134.0620 93° East 515 593 29,000  Level FlightAware
04:47AM 36.2620 134.1580 94° East 515 593 29,000  Level FlightAware
04:47AM 36.2560 134.2670 94° East 515 593 29,000  Level FlightAware
04:48AM 36.2500 134.3680 94° East 516 594 29,000  Level FlightAware
04:48AM 36.2460 134.4680 93° East 516 594 29,000  Level FlightAware
04:49AM 36.2490 134.5710 88° East 513 590 29,000  Level FlightAware
04:50AM 36.2570 134.6690 84° East 513 590 29,000  Level FlightAware
04:50AM 36.2670 134.7790 84° East 513 590 29,000  Level FlightAware
04:51AM 36.2750 134.8710 84° East 513 590 29,000  Level FlightAware
04:51AM 36.2840 134.9800 84° East 512 589 29,000  Level FlightAware
04:52AM 36.2920 135.0760 84° East 512 589 29,000  Level FlightAware
04:53AM 36.3020 135.1870 84° East 512 589 29,000  Level FlightAware
04:53AM 36.3100 135.2820 84° East 511 588 29,000  Level FlightAware
04:54AM 36.3190 135.3920 84° East 510 587 29,000  Level FlightAware
04:54AM 36.3260 135.4850 85° East 510 587 29,000  Level FlightAware
04:55AM 36.3340 135.5890 85° East 511 588 29,000  Level FlightAware
04:55AM 36.3430 135.6960 84° East 510 587 29,000  Level FlightAware
04:56AM 36.3510 135.7950 84° East 510 587 29,000  Level FlightAware
04:57AM 36.3580 135.8950 85° East 509 586 29,000  Level FlightAware
04:57AM 36.3650 135.9820 84° East 509 586 29,000  Level FlightAware
04:58AM 36.3740 136.1020 85° East 509 586 29,000  Level FlightAware
04:58AM 36.3820 136.2050 84° East 509 586 29,000  Level FlightAware
04:59AM 36.3890 136.2980 85° East 507 583 29,000  Level FlightAware
05:00AM 36.3960 136.3990 85° East 507 583 29,000  Level FlightAware
05:00AM 36.4040 136.4900 84° East 506 582 29,000  Level FlightAware
05:01AM 36.4160 136.5970 82° East 506 582 29,000  Level FlightAware
05:01AM 36.4290 136.7130 82° East 506 582 29,000  Level FlightAware
05:02AM 36.4380 136.8020 83° East 505 581 29,000  Level FlightAware
05:02AM 36.4480 136.9020 83° East 505 581 29,000  Level FlightAware
05:03AM 36.4590 137.0160 83° East 504 580 29,000  Level FlightAware
05:04AM 36.4680 137.1050 83° East 504 580 29,000  Level FlightAware
05:04AM 36.4780 137.2050 83° East 503 579 29,000  Level FlightAware
05:05AM 36.4880 137.3040 83° East 502 578 29,000  Level FlightAware
05:05AM 36.4990 137.4180 83° East 502 578 29,000  Level FlightAware
05:06AM 36.5080 137.5170 84° East 504 580 29,000  Level FlightAware
05:07AM 36.5170 137.6060 83° East 505 581 29,000  Level FlightAware
05:07AM 36.5290 137.7360 83° East 507 583 29,000  Level FlightAware
05:08AM 36.5380 137.8330 83° East 505 581 29,000  Level FlightAware
05:08AM 36.5460 137.9230 84° East 506 582 29,000  Level FlightAware
05:09AM 36.5550 138.0160 83° East 506 582 29,000  Level FlightAware
05:10AM 36.5640 138.1190 84° East 506 582 29,000  Level FlightAware
05:10AM 36.5760 138.2480 83° East 507 583 29,000  Level FlightAware
05:11AM 36.5850 138.3570 84° East 507 583 29,000  Level FlightAware
05:11AM 36.5930 138.4490 84° East 506 582 29,000  Level FlightAware
05:12AM 36.6030 138.5550 83° East 505 581 29,000  Level FlightAware
05:13AM 36.6120 138.6600 84° East 505 581 29,000  Level FlightAware
05:13AM 36.6190 138.7500 84° East 504 580 29,000  Level FlightAware
05:14AM 36.6300 138.8690 83° East 504 580 29,000  Level FlightAware
05:15AM 36.6400 138.9980 84° East 505 581 29,000  Level FlightAware
05:15AM 36.6480 139.0860 84° East 506 582 29,000  Level FlightAware
05:16AM 36.6560 139.1860 84° East 504 580 29,000  Level FlightAware
05:16AM 36.6640 139.2860 84° East 503 579 29,000 420 Level FlightAware
05:17AM 36.6720 139.3880 84° East 506 582 29,500 840 Climbing FlightAware
05:17AM 36.6810 139.5030 84° East 506 582 30,100 840 Climbing FlightAware
05:18AM 36.6880 139.5980 85° East 506 582 30,600 900 Climbing FlightAware
05:19AM 36.6960 139.6910 84° East 507 583 31,100 780 Climbing FlightAware
05:19AM 36.7030 139.7880 85° East 509 586 31,500 720 Climbing FlightAware
05:20AM 36.7120 139.9110 85° East 511 588 32,000 840 Climbing FlightAware
05:20AM 36.7190 139.9950 84° East 508 585 32,500 900 Climbing FlightAware
05:21AM 36.7260 140.1010 85° East 506 582 33,000 360 Climbing FlightAware
05:22AM 36.7340 140.2120 85° East 506 582 33,000  Level FlightAware
05:22AM 36.7420 140.3180 85° East 505 581 33,000  Level FlightAware
05:23AM 36.7490 140.4070 84° East 504 580 33,000  Level FlightAware
05:23AM 36.7570 140.5040 84° East 502 578 33,000  Level FlightAware
05:24AM 36.7680 140.6210 83° East 502 578 33,000  Level FlightAware
05:24AM 36.7750 140.7070 84° East 503 579 33,000  Level FlightAware
05:25AM 36.7850 140.8280 84° East 504 580 33,000  Level FlightAware
05:26AM 36.7930 140.9220 84° East 505 581 33,000  Level FlightAware
05:26AM 36.8010 141.0240 84° East 505 581 33,000  Level FlightAware
05:27AM 36.8090 141.1250 84° East 504 580 33,000  Level FlightAware
05:27AM 36.8180 141.2320 84° East 504 580 33,000  Level FlightAware
05:28AM 36.8260 141.3450 85° East 504 580 33,000  Level FlightAware
05:29AM 36.8340 141.4390 84° East 503 579 33,000  Level FlightAware
05:29AM 36.8410 141.5340 85° East 502 578 33,000  Level FlightAware
05:30AM 36.8510 141.6620 84° East 500 575 33,000  Level FlightAware
05:30AM 36.8580 141.7630 85° East 498 573 33,000  Level FlightAware
05:31AM 36.8660 141.8620 84° East 490 564 33,000  Level FlightAware
05:32AM 36.8730 141.9610 85° East 489 563 33,000  Level FlightAware
05:32AM 36.8800 142.0600 85° East 488 562 33,000  Level FlightAware
05:33AM 36.8870 142.1570 85° East 487 560 33,000  Level FlightAware
05:33AM 36.8940 142.2550 85° East 486 559 33,000  Level FlightAware
05:34AM 36.9010 142.3520 85° East 485 558 33,000  Level FlightAware
05:35AM 36.9080 142.4500 85° East 484 557 33,000  Level FlightAware
05:35AM 36.9140 142.5470 86° East 484 557 33,000  Level FlightAware
05:36AM 36.9210 142.6460 85° East 484 557 33,000  Level FlightAware
05:36AM 36.9260 142.7220 85° East 483 556 33,000  Level FlightAware
05:37AM 36.9340 142.8390 85° East 483 556 33,000  Level FlightAware
05:37AM 36.9400 142.9380 86° East 483 556 33,000  Level FlightAware
05:38AM 36.9460 143.0310 85° East 484 557 33,000  Level FlightAware
05:39AM 36.9520 143.1170 85° East 484 557 33,000  Level FlightAware
05:39AM 36.9580 143.2290 86° East 486 559 33,000  Level FlightAware
05:40AM 36.9670 143.3620 85° East 486 559 33,000  Level FlightAware
05:41AM 36.9730 143.4480 85° East 486 559 33,000  Level FlightAware
05:41AM 36.9790 143.5340 85° East 486 559 33,000  Level FlightAware
05:42AM 36.9850 143.6200 85° East 486 559 33,000  Level FlightAware
05:43AM 36.9910 143.7060 85° East 486 559 33,000  Level FlightAware
05:43AM 36.9970 143.8850 88° East 490 564 33,000  Level FlightAware
05:44AM 37.0050 144.0010 85° East 487 560 33,000  Level FlightAware
05:44AM 37.0160 144.0990 82° East 487 560 33,000  Level FlightAware
05:45AM 37.0300 144.2160 81° East 487 560 33,000  Level FlightAware
05:46AM 37.0460 144.3490 81° East 486 559 33,000  Level FlightAware
05:47AM 37.0570 144.4410 81° East 486 559 33,000  Level FlightAware
05:47AM 37.0690 144.5430 82° East 486 559 33,000  Level FlightAware
05:48AM 37.0820 144.6560 82° East 486 559 33,000  Level FlightAware
05:48AM 37.0920 144.7440 82° East 486 559 33,000  Level FlightAware
05:49AM 37.1020 144.8290 82° East 486 559 33,000  Level FlightAware
05:50AM 37.1200 144.9720 81° East 485 558 33,000  Level FlightAware
05:50AM 37.1330 145.0850 82° East 485 558 33,000  Level FlightAware
05:51AM 37.1410 145.1620 83° East 486 559 33,000  Level FlightAware
05:52AM 37.1580 145.3090 82° East 490 564 33,000  Level FlightAware
05:52AM 37.1660 145.3860 83° East 490 564 33,000  Level FlightAware
05:53AM 37.1770 145.4820 82° East 493 567 33,000  Level FlightAware
05:53AM 37.1870 145.5710 82° East 493 567 33,000  Level FlightAware
05:54AM 37.1970 145.6580 82° East 493 567 33,000  Level FlightAware
05:55AM 37.2070 145.7450 82° East 493 567 33,000  Level FlightAware
05:55AM 37.2170 145.8340 82° East 493 567 33,000  Level FlightAware
05:56AM 37.2260 145.9210 83° East 493 567 33,000  Level FlightAware
05:56AM 37.2360 146.0100 82° East 493 567 33,000  Level FlightAware
05:57AM 37.2460 146.0970 82° East 493 567 33,000  Level FlightAware
05:58AM 37.2560 146.1830 82° East 493 567 33,000  Level FlightAware
05:58AM 37.2650 146.2700 83° East 493 567 33,000  Level FlightAware
05:59AM 37.2750 146.3570 82° East 493 567 33,000  Level FlightAware
05:59AM 37.2840 146.4390 82° East 493 567 33,000  Level FlightAware
06:00AM 37.2940 146.5260 82° East 493 567 33,000  Level FlightAware
06:01AM 37.3040 146.6150 82° East 493 567 33,000  Level FlightAware
06:01AM 37.3140 146.7020 82° East 493 567 33,000  Level FlightAware
06:02AM 37.3230 146.7890 83° East 493 567 33,000  Level FlightAware
06:02AM 37.3330 146.8760 82° East 493 567 33,000  Level FlightAware
06:05AM 37.4921 147.1999 58° Northeast  Level Estimated
06:06AM 37.5652 147.3498 58° Northeast  Level Estimated
06:07AM 37.6381 147.5001 58° Northeast  Level Estimated
06:08AM 37.7109 147.6506 59° Northeast  Level Estimated
06:09AM 37.7834 147.8015 59° Northeast  Level Estimated
06:10AM 37.8558 147.9526 59° Northeast  Level Estimated
06:11AM 37.9279 148.1040 59° Northeast  Level Estimated
06:12AM 37.9999 148.2558 59° Northeast  Level Estimated
06:13AM 38.0717 148.4078 59° Northeast  Level Estimated
06:14AM 38.1433 148.5601 59° Northeast  Level Estimated
06:15AM 38.2146 148.7127 59° Northeast  Level Estimated
06:16AM 38.2858 148.8656 59° Northeast  Level Estimated
06:17AM 38.3568 149.0189 59° Northeast  Level Estimated
06:18AM 38.4276 149.1724 59° Northeast  Level Estimated
06:19AM 38.4982 149.3262 60° Northeast  Level Estimated
06:20AM 38.5685 149.4803 60° Northeast  Level Estimated
06:21AM 38.6387 149.6347 60° Northeast  Level Estimated
06:22AM 38.7087 149.7895 60° Northeast  Level Estimated
06:23AM 38.7785 149.9445 60° Northeast  Level Estimated
06:24AM 38.8480 150.0998 60° Northeast  Level Estimated
06:25AM 38.9174 150.2555 60° Northeast  Level Estimated
06:26AM 38.9865 150.4114 60° Northeast  Level Estimated
06:27AM 39.0555 150.5677 60° Northeast  Level Estimated
06:28AM 39.1242 150.7242 60° Northeast  Level Estimated
06:29AM 39.1927 150.8810 61° Northeast  Level Estimated
06:30AM 39.2611 151.0382 61° Northeast  Level Estimated
06:31AM 39.3292 151.1957 61° Northeast  Level Estimated
06:32AM 39.3970 151.3535 61° Northeast  Level Estimated
06:33AM 39.4647 151.5115 61° Northeast  Level Estimated
06:34AM 39.5322 151.6699 61° Northeast  Level Estimated
06:35AM 39.5994 151.8286 61° Northeast  Level Estimated
06:36AM 39.6665 151.9876 61° Northeast  Level Estimated
06:37AM 39.7333 152.1469 61° Northeast  Level Estimated
06:38AM 39.7999 152.3065 61° Northeast  Level Estimated
06:39AM 39.8663 152.4665 62° Northeast  Level Estimated
06:40AM 39.9324 152.6267 62° Northeast  Level Estimated
06:41AM 39.9984 152.7873 62° Northeast  Level Estimated
06:42AM 40.0641 152.9481 62° Northeast  Level Estimated
06:43AM 40.1296 153.1093 62° Northeast  Level Estimated
06:44AM 40.1948 153.2708 62° Northeast  Level Estimated
06:45AM 40.2599 153.4326 62° Northeast  Level Estimated
06:46AM 40.3247 153.5947 62° Northeast  Level Estimated
06:47AM 40.3893 153.7571 62° Northeast  Level Estimated
06:48AM 40.4536 153.9198 62° Northeast  Level Estimated
06:49AM 40.5178 154.0828 63° Northeast  Level Estimated
06:50AM 40.5817 154.2462 63° Northeast  Level Estimated
06:51AM 40.6453 154.4098 63° Northeast  Level Estimated
06:52AM 40.7088 154.5738 63° Northeast  Level Estimated
06:53AM 40.7720 154.7381 63° Northeast  Level Estimated
06:54AM 40.8350 154.9027 63° Northeast  Level Estimated
06:55AM 40.8977 155.0676 63° Northeast  Level Estimated
06:56AM 40.9602 155.2328 63° Northeast  Level Estimated
06:57AM 41.0225 155.3983 63° Northeast  Level Estimated
06:58AM 41.0845 155.5642 64° Northeast  Level Estimated
06:59AM 41.1463 155.7303 64° Northeast  Level Estimated
07:00AM 41.2079 155.8968 64° Northeast  Level Estimated
07:01AM 41.2692 156.0636 64° Northeast  Level Estimated
07:02AM 41.3302 156.2307 64° Northeast  Level Estimated
07:03AM 41.3911 156.3981 64° Northeast  Level Estimated
07:04AM 41.4517 156.5658 64° Northeast  Level Estimated
07:05AM 41.5120 156.7338 64° Northeast  Level Estimated
07:06AM 41.5721 156.9022 64° Northeast  Level Estimated
07:07AM 41.6320 157.0708 65° Northeast  Level Estimated
07:08AM 41.6916 157.2398 65° Northeast  Level Estimated
07:09AM 41.7509 157.4091 65° Northeast  Level Estimated
07:10AM 41.8100 157.5787 65° Northeast  Level Estimated
07:11AM 41.8689 157.7486 65° Northeast  Level Estimated
07:12AM 41.9275 157.9188 65° Northeast  Level Estimated
07:13AM 41.9859 158.0894 65° Northeast  Level Estimated
07:14AM 42.0440 158.2602 65° Northeast  Level Estimated
07:15AM 42.1018 158.4314 65° Northeast  Level Estimated
07:16AM 42.1594 158.6028 66° East  Level Estimated
07:17AM 42.2168 158.7746 66° East  Level Estimated
07:18AM 42.2738 158.9467 66° East  Level Estimated
07:19AM 42.3307 159.1191 66° East  Level Estimated
07:20AM 42.3872 159.2918 66° East  Level Estimated
07:21AM 42.4436 159.4649 66° East  Level Estimated
07:22AM 42.4996 159.6382 66° East  Level Estimated
07:23AM 42.5554 159.8118 66° East  Level Estimated
07:24AM 42.6109 159.9858 67° East  Level Estimated
07:25AM 42.6662 160.1601 67° East  Level Estimated
07:26AM 42.7211 160.3347 67° East  Level Estimated
07:27AM 42.7759 160.5096 67° East  Level Estimated
07:28AM 42.8303 160.6848 67° East  Level Estimated
07:29AM 42.8845 160.8602 67° East  Level Estimated
07:30AM 42.9385 161.0361 67° East  Level Estimated
07:31AM 42.9921 161.2122 67° East  Level Estimated
07:32AM 43.0455 161.3886 67° East  Level Estimated
07:33AM 43.0986 161.5653 68° East  Level Estimated
07:34AM 43.1515 161.7424 68° East  Level Estimated
07:35AM 43.2040 161.9197 68° East  Level Estimated
07:36AM 43.2563 162.0974 68° East  Level Estimated
07:37AM 43.3083 162.2753 68° East  Level Estimated
07:38AM 43.3601 162.4536 68° East  Level Estimated
07:39AM 43.4115 162.6321 68° East  Level Estimated
07:40AM 43.4627 162.8110 68° East  Level Estimated
07:41AM 43.5136 162.9902 69° East  Level Estimated
07:42AM 43.5643 163.1696 69° East  Level Estimated
07:43AM 43.6146 163.3494 69° East  Level Estimated
07:43AM 45.1500 163.3667 66° East 499 574 35,000  Level Oakland Oceanic (ODAPS)
07:44AM 43.6647 163.5295 69° East  Level Estimated
07:44AM 45.2000 163.5333 66° East 495 570 35,000  Level Oakland Oceanic (ODAPS)
07:45AM 43.7145 163.7099 69° East  Level Estimated
07:46AM 43.7640 163.8905 69° East  Level Estimated
07:47AM 43.8132 164.0715 69° East  Level Estimated
07:48AM 43.8621 164.2527 69° East  Level Estimated
07:49AM 43.9107 164.4343 70° East  Level Estimated
07:50AM 45.5250 164.5815 67° East 495 570 35,000  Level FlightAware Transoceanic
07:51AM 45.5782 164.7574 67° East 495 570 35,000  Level FlightAware Transoceanic
07:52AM 45.6311 164.9336 67° East 495 570 35,000  Level FlightAware Transoceanic
07:53AM 45.6838 165.1101 67° East 495 570 35,000  Level FlightAware Transoceanic
07:54AM 45.7362 165.2870 67° East 495 570 35,000  Level FlightAware Transoceanic
07:55AM 45.7884 165.4642 67° East 495 570 35,000  Level FlightAware Transoceanic
07:56AM 45.8402 165.6417 67° East 495 570 35,000  Level FlightAware Transoceanic
07:57AM 45.8918 165.8196 67° East 495 570 35,000  Level FlightAware Transoceanic
07:58AM 45.9431 165.9978 68° East 495 570 35,000  Level FlightAware Transoceanic
07:58AM 45.9500 165.9833 68° East 490 564 35,000  Level Oakland Oceanic (ODAPS)
07:59AM 45.9942 166.1763 68° East 495 570 35,000  Level FlightAware Transoceanic
08:00AM 46.0449 166.3551 68° East 495 570 35,000  Level FlightAware Transoceanic
08:01AM 46.0954 166.5343 68° East 495 570 35,000  Level FlightAware Transoceanic
08:02AM 46.1456 166.7138 68° East 495 570 35,000  Level FlightAware Transoceanic
08:03AM 46.1955 166.8937 68° East 495 570 35,000  Level FlightAware Transoceanic
08:04AM 46.2502 167.0633 69° East 490 564 35,000  Level FlightAware Transoceanic
08:05AM 46.2993 167.2445 69° East 490 564 35,000  Level FlightAware Transoceanic
08:06AM 46.3480 167.4259 69° East 490 564 35,000  Level FlightAware Transoceanic
08:07AM 46.3965 167.6077 69° East 490 564 35,000  Level FlightAware Transoceanic
08:08AM 46.4447 167.7899 69° East 490 564 35,000  Level FlightAware Transoceanic
08:09AM 46.4926 167.9723 69° East 490 564 35,000  Level FlightAware Transoceanic
08:10AM 46.5402 168.1550 69° East 490 564 35,000  Level FlightAware Transoceanic
08:11AM 46.5875 168.3381 69° East 490 564 35,000  Level FlightAware Transoceanic
08:12AM 46.6345 168.5215 70° East 490 564 35,000  Level FlightAware Transoceanic
08:12AM 46.6167 168.4833 69° East 489 563 35,000  Level Oakland Oceanic (ODAPS)
08:13AM 46.6812 168.7052 70° East 490 564 35,000  Level FlightAware Transoceanic
08:14AM 46.7277 168.8892 70° East 490 564 35,000  Level FlightAware Transoceanic
08:15AM 46.7738 169.0736 70° East 490 564 35,000  Level FlightAware Transoceanic
08:16AM 46.8196 169.2582 70° East 490 564 35,000  Level FlightAware Transoceanic
08:17AM 46.8652 169.4432 70° East 490 564 35,000  Level FlightAware Transoceanic
08:18AM 46.9061 169.6188 70° East 489 563 35,000  Level FlightAware Transoceanic
08:19AM 46.9532 169.8092 70° East 489 563 35,000  Level FlightAware Transoceanic
08:20AM 47.0000 170.0000 70° East 489 563 35,000  Level FlightAware Transoceanic
08:20AM 47.0000 170.0000 70° East 493 567 35,000  Level Oakland Oceanic (ODAPS)
08:21AM 47.0456 170.1812 70° East 489 563 35,000  Level FlightAware Transoceanic
08:22AM 47.0909 170.3627 70° East 489 563 35,000  Level FlightAware Transoceanic
08:23AM 47.1359 170.5445 70° East 489 563 35,000  Level FlightAware Transoceanic
08:24AM 47.1806 170.7266 70° East 489 563 35,000  Level FlightAware Transoceanic
08:25AM 47.2250 170.9090 70° East 489 563 35,000  Level FlightAware Transoceanic
08:26AM 47.2742 171.1128 70° East 493 567 35,000  Level FlightAware Transoceanic
08:26AM 47.2667 171.0500 71° East 495 570 35,000  Level Oakland Oceanic (ODAPS)
08:27AM 47.3189 171.2994 71° East 493 567 35,000  Level FlightAware Transoceanic
08:28AM 47.3632 171.4863 71° East 493 567 35,000  Level FlightAware Transoceanic
08:29AM 47.4073 171.6735 71° East 493 567 35,000  Level FlightAware Transoceanic
08:30AM 47.4510 171.8610 71° East 493 567 35,000  Level FlightAware Transoceanic
08:31AM 47.4945 172.0489 71° East 493 567 35,000  Level FlightAware Transoceanic
08:32AM 47.5373 172.2072 71° East 495 570 35,000  Level FlightAware Transoceanic
08:33AM 47.5813 172.4013 72° East 495 570 35,000  Level FlightAware Transoceanic
08:34AM 47.6249 172.5956 72° East 495 570 35,000  Level FlightAware Transoceanic
08:35AM 47.6682 172.7903 72° East 495 570 35,000  Level FlightAware Transoceanic
08:36AM 47.7112 172.9853 72° East 495 570 35,000  Level FlightAware Transoceanic
08:37AM 47.7539 173.1806 72° East 495 570 35,000  Level FlightAware Transoceanic
08:38AM 47.7962 173.3763 72° East 495 570 35,000  Level FlightAware Transoceanic
08:39AM 47.8382 173.5722 72° East 495 570 35,000  Level FlightAware Transoceanic
08:40AM 47.8798 173.7685 73° East 495 570 35,000  Level FlightAware Transoceanic
08:40AM 47.8500 173.6833 72° East 500 575 35,000  Level Oakland Oceanic (ODAPS)
08:41AM 47.9211 173.9651 73° East 495 570 35,000  Level FlightAware Transoceanic
08:42AM 47.9621 174.1620 73° East 495 570 35,000  Level FlightAware Transoceanic
08:43AM 48.0028 174.3592 73° East 495 570 35,000  Level FlightAware Transoceanic
08:44AM 48.0431 174.5567 73° East 495 570 35,000  Level FlightAware Transoceanic
08:45AM 48.0830 174.7545 73° East 495 570 35,000  Level FlightAware Transoceanic
08:46AM 48.0993 174.8831 73° East 500 575 35,000  Level FlightAware Transoceanic
08:47AM 48.1397 175.0842 73° East 500 575 35,000  Level FlightAware Transoceanic
08:48AM 48.1796 175.2856 74° East 500 575 35,000  Level FlightAware Transoceanic
08:49AM 48.2193 175.4873 74° East 500 575 35,000  Level FlightAware Transoceanic
08:50AM 48.2586 175.6893 74° East 500 575 35,000  Level FlightAware Transoceanic
08:51AM 48.2975 175.8916 74° East 500 575 35,000  Level FlightAware Transoceanic
08:52AM 48.3360 176.0943 74° East 500 575 35,000  Level FlightAware Transoceanic
08:53AM 48.3743 176.2972 74° East 500 575 35,000  Level FlightAware Transoceanic
08:53AM 48.4000 176.4167 74° East 496 571 35,000  Level Oakland Oceanic (ODAPS)
08:54AM 48.4121 176.5005 74° East 500 575 35,000  Level FlightAware Transoceanic
08:55AM 48.4496 176.7040 75° East 500 575 35,000  Level FlightAware Transoceanic
08:56AM 48.4868 176.9079 75° East 500 575 35,000  Level FlightAware Transoceanic
08:57AM 48.5235 177.1120 75° East 500 575 35,000  Level FlightAware Transoceanic
08:58AM 48.5599 177.3164 75° East 500 575 35,000  Level FlightAware Transoceanic
08:59AM 48.5960 177.5212 75° East 500 575 35,000  Level FlightAware Transoceanic
09:00AM 48.6123 177.6015 75° East 496 571 35,000  Level FlightAware Transoceanic
09:01AM 48.6465 177.8000 75° East 496 571 35,000  Level FlightAware Transoceanic
09:02AM 48.6804 177.9987 76° East 496 571 35,000  Level FlightAware Transoceanic
09:03AM 48.7139 178.1976 76° East 496 571 35,000  Level FlightAware Transoceanic
09:04AM 48.7471 178.3969 76° East 496 571 35,000  Level FlightAware Transoceanic
09:05AM 48.7799 178.5964 76° East 496 571 35,000  Level FlightAware Transoceanic
09:06AM 48.8124 178.7961 76° East 496 571 35,000  Level FlightAware Transoceanic
09:07AM 48.8445 178.9962 76° East 496 571 35,000  Level FlightAware Transoceanic
09:07AM 48.8667 179.1833 76° East 484 557 35,000  Level Oakland Oceanic (ODAPS)
09:08AM 48.8763 179.1964 77° East 496 571 35,000  Level FlightAware Transoceanic
09:09AM 48.9078 179.3969 77° East 496 571 35,000  Level FlightAware Transoceanic
09:10AM 48.9389 179.5977 77° East 496 571 35,000  Level FlightAware Transoceanic
09:11AM 48.9696 179.7987 77° East 496 571 35,000  Level FlightAware Transoceanic
09:11AM 49.0000 180.0000 86° East 508 585 35,000  Level Oakland Oceanic (ODAPS)
09:12AM 49.0000 -180.0000 86° East 496 571 35,000  Level FlightAware Transoceanic
09:13AM 49.0094 -179.7784 86° East 496 571 35,000  Level FlightAware Transoceanic
09:14AM 49.0183 -179.5567 87° East 484 557 35,000  Level FlightAware Transoceanic
09:15AM 49.0269 -179.3349 87° East 484 557 35,000  Level FlightAware Transoceanic
09:16AM 49.0350 -179.1130 87° East 484 557 35,000  Level FlightAware Transoceanic
09:17AM 49.0427 -178.8911 87° East 484 557 35,000  Level FlightAware Transoceanic
09:18AM 49.0490 -178.6981 87° East 508 585 35,000  Level FlightAware Transoceanic
09:19AM 49.0558 -178.4809 87° East 508 585 35,000  Level FlightAware Transoceanic
09:20AM 49.0621 -178.2636 88° East 508 585 35,000  Level FlightAware Transoceanic
09:21AM 49.0680 -178.0463 88° East 508 585 35,000  Level FlightAware Transoceanic
09:22AM 49.0736 -177.8289 88° East 508 585 35,000  Level FlightAware Transoceanic
09:22AM 49.0667 -177.9833 88° East 516 594 35,000  Level Oakland Oceanic (ODAPS)
09:23AM 49.0787 -177.6115 88° East 508 585 35,000  Level FlightAware Transoceanic
09:24AM 49.0834 -177.3940 88° East 508 585 35,000  Level FlightAware Transoceanic
09:25AM 49.0877 -177.1765 88° East 508 585 35,000  Level FlightAware Transoceanic
09:26AM 49.0915 -176.9589 89° East 508 585 35,000  Level FlightAware Transoceanic
09:27AM 49.0950 -176.7413 89° East 508 585 35,000  Level FlightAware Transoceanic
09:28AM 49.0981 -176.5237 89° East 508 585 35,000  Level FlightAware Transoceanic
09:29AM 49.0969 -176.4308 89° East 516 594 35,000  Level FlightAware Transoceanic
09:30AM 49.0995 -176.2088 89° East 516 594 35,000  Level FlightAware Transoceanic
09:31AM 49.1017 -175.9869 89° East 516 594 35,000  Level FlightAware Transoceanic
09:32AM 49.1034 -175.7649 89° East 516 594 35,000  Level FlightAware Transoceanic
09:33AM 49.1048 -175.5429 90° East 516 594 35,000  Level FlightAware Transoceanic
09:34AM 49.1057 -175.3209 90° East 516 594 35,000  Level FlightAware Transoceanic
09:35AM 49.1062 -175.0989 90° East 516 594 35,000  Level FlightAware Transoceanic
09:35AM 49.1000 -175.0500 90° East 523 602 35,000  Level Oakland Oceanic (ODAPS)
09:36AM 49.1062 -174.8769 90° East 516 594 35,000  Level FlightAware Transoceanic
09:37AM 49.1059 -174.6549 90° East 516 594 35,000  Level FlightAware Transoceanic
09:38AM 49.1051 -174.4329 90° East 516 594 35,000  Level FlightAware Transoceanic
09:39AM 49.1039 -174.2110 91° East 516 594 35,000  Level FlightAware Transoceanic
09:40AM 49.1022 -173.9890 91° East 516 594 35,000  Level FlightAware Transoceanic
09:41AM 49.1001 -173.7670 91° East 516 594 35,000  Level FlightAware Transoceanic
09:42AM 49.0929 -173.5112 91° East 523 602 35,000  Level FlightAware Transoceanic
09:43AM 49.0902 -173.2914 91° East 523 602 35,000  Level FlightAware Transoceanic
09:44AM 49.0871 -173.0717 91° East 523 602 35,000  Level FlightAware Transoceanic
09:45AM 49.0836 -172.8520 91° East 523 602 35,000  Level FlightAware Transoceanic
09:46AM 49.0797 -172.6323 92° East 523 602 35,000  Level FlightAware Transoceanic
09:47AM 49.0753 -172.4126 92° East 523 602 35,000  Level FlightAware Transoceanic
09:48AM 49.0705 -172.1930 92° East 523 602 35,000  Level FlightAware Transoceanic
09:49AM 49.0654 -171.9735 92° East 523 602 35,000  Level FlightAware Transoceanic
09:49AM 49.0667 -172.0500 92° East 512 589 35,000  Level Oakland Oceanic (ODAPS)
09:50AM 49.0598 -171.7540 92° East 523 602 35,000  Level FlightAware Transoceanic
09:51AM 49.0537 -171.5345 92° East 523 602 35,000  Level FlightAware Transoceanic
09:52AM 49.0473 -171.3151 93° East 523 602 35,000  Level FlightAware Transoceanic
09:53AM 49.0405 -171.0957 93° East 523 602 35,000  Level FlightAware Transoceanic
09:54AM 49.0332 -170.8764 93° East 523 602 35,000  Level FlightAware Transoceanic
09:55AM 49.0310 -170.8193 93° East 512 589 35,000  Level FlightAware Transoceanic
09:56AM 49.0238 -170.6144 93° East 512 589 35,000  Level FlightAware Transoceanic
09:57AM 49.0162 -170.4095 93° East 512 589 35,000  Level FlightAware Transoceanic
09:58AM 49.0083 -170.2047 93° East 512 589 35,000 1,020 Level FlightAware Transoceanic
09:58AM 49.0000 -170.0000 86° East 531 611 37,000  Climbing Oakland Oceanic (ODAPS)
09:59AM 49.0000 -170.0000 86° East 512 589 35,000 -1,860 Descending FlightAware Transoceanic
10:00AM 49.0096 -169.7733 86° East 512 589 35,000  Level FlightAware Transoceanic
10:01AM 49.0187 -169.5466 87° East 512 589 35,000  Level FlightAware Transoceanic
10:02AM 49.0275 -169.3198 87° East 512 589 35,000  Level FlightAware Transoceanic
10:03AM 49.0357 -169.0929 87° East 512 589 35,000 1,500 Level FlightAware Transoceanic
10:03AM 49.0333 -169.0167 87° East 534 615 37,000  Climbing Oakland Oceanic (ODAPS)
10:04AM 49.0435 -168.8659 87° East 512 589 35,000  Descending FlightAware Transoceanic
10:05AM 49.0509 -168.6389 87° East 531 611 37,000 960 Climbing FlightAware Transoceanic
10:06AM 49.0578 -168.4117 87° East 531 611 37,000  Level FlightAware Transoceanic
10:07AM 49.0643 -168.1846 88° East 531 611 37,000  Level FlightAware Transoceanic
10:08AM 49.0703 -167.9573 88° East 531 611 37,000  Level FlightAware Transoceanic
10:09AM 49.0731 -167.6653 88° East 534 615 37,000  Level FlightAware Transoceanic
10:10AM 49.0782 -167.4399 88° East 534 615 37,000  Level FlightAware Transoceanic
10:11AM 49.0829 -167.2144 88° East 534 615 37,000  Level FlightAware Transoceanic
10:12AM 49.0871 -166.9889 88° East 534 615 37,000  Level FlightAware Transoceanic
10:13AM 49.0909 -166.7634 89° East 534 615 37,000  Level FlightAware Transoceanic
10:14AM 49.0942 -166.5378 89° East 534 615 37,000  Level FlightAware Transoceanic
10:15AM 49.0972 -166.3122 89° East 534 615 37,000  Level FlightAware Transoceanic
10:16AM 49.0996 -166.0866 89° East 534 615 37,000  Level FlightAware Transoceanic
10:17AM 49.1017 -165.8609 89° East 534 615 37,000  Level FlightAware Transoceanic
10:17AM 49.1000 -165.9000 89° East 535 616 37,000  Level Oakland Oceanic (ODAPS)
10:18AM 49.1032 -165.6353 89° East 534 615 37,000  Level FlightAware Transoceanic
10:19AM 49.1044 -165.4096 90° East 534 615 37,000  Level FlightAware Transoceanic
10:20AM 49.1051 -165.1839 90° East 534 615 37,000  Level FlightAware Transoceanic
10:21AM 49.1053 -164.9582 90° East 534 615 37,000  Level FlightAware Transoceanic
10:22AM 49.1052 -164.7325 90° East 534 615 37,000  Level FlightAware Transoceanic
10:23AM 49.1036 -164.5369 90° East 535 616 37,000  Level FlightAware Transoceanic
10:24AM 49.1027 -164.3097 90° East 535 616 37,000  Level FlightAware Transoceanic
10:25AM 49.1013 -164.0826 91° East 535 616 37,000  Level FlightAware Transoceanic
10:26AM 49.0994 -163.8554 91° East 535 616 37,000  Level FlightAware Transoceanic
10:27AM 49.0971 -163.6283 91° East 535 616 37,000  Level FlightAware Transoceanic
10:28AM 49.0944 -163.4012 91° East 535 616 37,000  Level FlightAware Transoceanic
10:29AM 49.0912 -163.1741 91° East 535 616 37,000  Level FlightAware Transoceanic
10:30AM 49.0876 -162.9470 91° East 535 616 37,000  Level FlightAware Transoceanic
10:31AM 49.0835 -162.7200 92° East 535 616 37,000  Level FlightAware Transoceanic
10:31AM 49.0833 -162.7833 92° East 534 615 37,000  Level Oakland Oceanic (ODAPS)
10:32AM 49.0790 -162.4930 92° East 535 616 37,000  Level FlightAware Transoceanic
10:33AM 49.0741 -162.2661 92° East 535 616 37,000  Level FlightAware Transoceanic
10:34AM 49.0686 -162.0392 92° East 535 616 37,000  Level FlightAware Transoceanic
10:35AM 49.0628 -161.8124 92° East 535 616 37,000  Level FlightAware Transoceanic
10:36AM 49.0565 -161.5856 93° East 535 616 37,000  Level FlightAware Transoceanic
10:37AM 49.0500 -161.3905 93° East 534 615 37,000  Level FlightAware Transoceanic
10:38AM 49.0429 -161.1586 93° East 534 615 37,000  Level FlightAware Transoceanic
10:39AM 49.0352 -160.9267 93° East 534 615 37,000  Level FlightAware Transoceanic
10:40AM 49.0271 -160.6949 93° East 534 615 37,000  Level FlightAware Transoceanic
10:41AM 49.0185 -160.4632 93° East 534 615 37,000  Level FlightAware Transoceanic
10:42AM 49.0095 -160.2316 93° East 534 615 37,000  Level FlightAware Transoceanic
10:43AM 49.0000 -160.0000 95° East 534 615 37,000  Level FlightAware Transoceanic
10:43AM 49.0000 -160.0000 95° East 523 602 37,000  Level Oakland Oceanic (ODAPS)
10:44AM 48.9879 -159.7837 95° East 534 615 37,000  Level FlightAware Transoceanic
10:44AM 48.9833 -159.6833 95° East 519 597 37,000  Level Oakland Oceanic (ODAPS)
10:45AM 48.9753 -159.5674 95° East 534 615 37,000  Level FlightAware Transoceanic
10:46AM 48.9623 -159.3513 95° East 534 615 37,000  Level FlightAware Transoceanic
10:47AM 48.9490 -159.1353 95° East 534 615 37,000  Level FlightAware Transoceanic
10:48AM 48.9352 -158.9194 96° East 534 615 37,000  Level FlightAware Transoceanic
10:49AM 48.9210 -158.7036 96° East 523 602 37,000  Level FlightAware Transoceanic
10:50AM 48.9065 -158.4880 96° East 523 602 37,000  Level FlightAware Transoceanic
10:51AM 48.8996 -158.3725 96° East 519 597 37,000  Level FlightAware Transoceanic
10:52AM 48.8842 -158.1545 96° East 519 597 37,000  Level FlightAware Transoceanic
10:53AM 48.8684 -157.9366 96° East 519 597 37,000  Level FlightAware Transoceanic
10:54AM 48.8521 -157.7189 97° East 519 597 37,000  Level FlightAware Transoceanic
10:55AM 48.8355 -157.5013 97° East 519 597 37,000  Level FlightAware Transoceanic
10:56AM 48.8185 -157.2838 97° East 519 597 37,000  Level FlightAware Transoceanic
10:57AM 48.8010 -157.0665 97° East 519 597 37,000  Level FlightAware Transoceanic
10:58AM 48.7832 -156.8493 97° East 519 597 37,000  Level FlightAware Transoceanic
10:58AM 48.7667 -156.6833 97° East 518 596 37,000  Level Oakland Oceanic (ODAPS)
10:59AM 48.7649 -156.6323 97° East 519 597 37,000  Level FlightAware Transoceanic
11:00AM 48.7462 -156.4155 98° East 519 597 37,000  Level FlightAware Transoceanic
11:01AM 48.7272 -156.1988 98° East 519 597 37,000  Level FlightAware Transoceanic
11:02AM 48.7077 -155.9823 98° East 519 597 37,000  Level FlightAware Transoceanic
11:03AM 48.6878 -155.7660 98° East 519 597 37,000  Level FlightAware Transoceanic
11:04AM 48.6675 -155.5498 98° East 519 597 37,000  Level FlightAware Transoceanic
11:05AM 48.6487 -155.3748 98° East 518 596 37,000  Level FlightAware Transoceanic
11:06AM 48.6276 -155.1573 98° East 518 596 37,000  Level FlightAware Transoceanic
11:07AM 48.6060 -154.9400 99° East 518 596 37,000  Level FlightAware Transoceanic
11:08AM 48.5841 -154.7229 99° East 518 596 37,000  Level FlightAware Transoceanic
11:09AM 48.5618 -154.5060 99° East 518 596 37,000  Level FlightAware Transoceanic
11:10AM 48.5391 -154.2893 99° East 518 596 37,000  Level FlightAware Transoceanic
11:11AM 48.5159 -154.0727 99° East 518 596 37,000  Level FlightAware Transoceanic
11:12AM 48.4924 -153.8564 99° East 518 596 37,000  Level FlightAware Transoceanic
11:12AM 48.4833 -153.7500 100° East 511 588 37,000  Level Oakland Oceanic (ODAPS)
11:13AM 48.4684 -153.6403 100° East 518 596 37,000  Level FlightAware Transoceanic
11:14AM 48.4441 -153.4243 100° East 518 596 37,000  Level FlightAware Transoceanic
11:15AM 48.4193 -153.2086 100° East 518 596 37,000  Level FlightAware Transoceanic
11:16AM 48.3941 -152.9931 100° East 518 596 37,000  Level FlightAware Transoceanic
11:17AM 48.3686 -152.7778 100° East 518 596 37,000  Level FlightAware Transoceanic
11:18AM 48.3426 -152.5628 100° East 518 596 37,000  Level FlightAware Transoceanic
11:19AM 48.3267 -152.4185 101° East 511 588 37,000  Level FlightAware Transoceanic
11:20AM 48.2991 -152.1974 101° East 511 588 37,000  Level FlightAware Transoceanic
11:21AM 48.2711 -151.9765 101° East 511 588 37,000  Level FlightAware Transoceanic
11:22AM 48.2426 -151.7559 101° East 511 588 37,000  Level FlightAware Transoceanic
11:23AM 48.2138 -151.5355 101° East 511 588 37,000  Level FlightAware Transoceanic
11:24AM 48.1845 -151.3154 101° East 511 588 37,000  Level FlightAware Transoceanic
11:25AM 48.1548 -151.0955 102° East 511 588 37,000  Level FlightAware Transoceanic
11:26AM 48.1247 -150.8759 102° East 511 588 37,000  Level FlightAware Transoceanic
11:26AM 48.1167 -150.8333 102° East 514 592 37,000  Level Oakland Oceanic (ODAPS)
11:27AM 48.0941 -150.6565 102° East 511 588 37,000  Level FlightAware Transoceanic
11:28AM 48.0632 -150.4374 102° East 511 588 37,000  Level FlightAware Transoceanic
11:29AM 48.0318 -150.2186 102° East 511 588 37,000  Level FlightAware Transoceanic
11:30AM 48.0000 -150.0000 110° East 511 588 37,000  Level FlightAware Transoceanic
11:30AM 48.0000 -150.0000 110° East 504 580 37,000  Level Oakland Oceanic (ODAPS)
11:31AM 47.9517 -149.8012 110° East 511 588 37,000  Level FlightAware Transoceanic
11:32AM 47.9031 -149.6028 110° East 514 592 37,000  Level FlightAware Transoceanic
11:33AM 47.8542 -149.4048 110° East 514 592 37,000  Level FlightAware Transoceanic
11:34AM 47.8049 -149.2072 110° East 514 592 37,000  Level FlightAware Transoceanic
11:35AM 47.7553 -149.0099 111° Southeast 514 592 37,000  Level FlightAware Transoceanic
11:36AM 47.7053 -148.8130 111° Southeast 514 592 37,000  Level FlightAware Transoceanic
11:37AM 47.6616 -148.6420 111° Southeast 504 580 37,000  Level FlightAware Transoceanic
11:38AM 47.6120 -148.4494 111° Southeast 504 580 37,000  Level FlightAware Transoceanic
11:39AM 47.5620 -148.2573 111° Southeast 504 580 37,000  Level FlightAware Transoceanic
11:40AM 47.5117 -148.0654 111° Southeast 504 580 37,000  Level FlightAware Transoceanic
11:40AM 47.5167 -148.1000 111° Southeast 503 579 37,000  Level Oakland Oceanic (ODAPS)
11:41AM 47.4611 -147.8740 111° Southeast 504 580 37,000  Level FlightAware Transoceanic
11:42AM 47.4102 -147.6829 112° Southeast 504 580 37,000  Level FlightAware Transoceanic
11:43AM 47.3589 -147.4922 112° Southeast 504 580 37,000  Level FlightAware Transoceanic
11:44AM 47.3074 -147.3019 112° Southeast 504 580 37,000  Level FlightAware Transoceanic
11:45AM 47.2555 -147.1119 112° Southeast 504 580 37,000  Level FlightAware Transoceanic
11:46AM 47.2079 -146.9519 112° Southeast 503 579 37,000  Level FlightAware Transoceanic
11:47AM 47.1553 -146.7619 112° Southeast 503 579 37,000  Level FlightAware Transoceanic
11:48AM 47.1025 -146.5722 112° Southeast 503 579 37,000  Level FlightAware Transoceanic
11:49AM 47.0493 -146.3829 112° Southeast 503 579 37,000  Level FlightAware Transoceanic
11:50AM 46.9958 -146.1940 113° Southeast 503 579 37,000  Level FlightAware Transoceanic
11:51AM 46.9419 -146.0055 113° Southeast 503 579 37,000  Level FlightAware Transoceanic
11:52AM 46.8878 -145.8173 113° Southeast 503 579 37,000  Level FlightAware Transoceanic
11:53AM 46.8334 -145.6296 113° Southeast 503 579 37,000  Level FlightAware Transoceanic
11:54AM 46.7786 -145.4422 113° Southeast 503 579 37,000  Level FlightAware Transoceanic
11:54AM 46.8000 -145.5167 113° Southeast 498 573 37,000  Level Oakland Oceanic (ODAPS)
11:55AM 46.7236 -145.2552 113° Southeast 503 579 37,000  Level FlightAware Transoceanic
11:56AM 46.6683 -145.0686 113° Southeast 503 579 37,000  Level FlightAware Transoceanic
11:57AM 46.6126 -144.8823 114° Southeast 503 579 37,000  Level FlightAware Transoceanic
11:58AM 46.5566 -144.6965 114° Southeast 503 579 37,000  Level FlightAware Transoceanic
11:59AM 46.5004 -144.5110 114° Southeast 503 579 37,000  Level FlightAware Transoceanic
12:00PM 46.4726 -144.4211 114° Southeast 498 573 37,000  Level FlightAware Transoceanic
12:01PM 46.4170 -144.2397 114° Southeast 498 573 37,000  Level FlightAware Transoceanic
12:02PM 46.3612 -144.0588 114° Southeast 498 573 37,000  Level FlightAware Transoceanic
12:03PM 46.3050 -143.8782 114° Southeast 498 573 37,000  Level FlightAware Transoceanic
12:04PM 46.2486 -143.6980 114° Southeast 498 573 37,000  Level FlightAware Transoceanic
12:05PM 46.1919 -143.5182 115° Southeast 498 573 37,000  Level FlightAware Transoceanic
12:06PM 46.1349 -143.3387 115° Southeast 498 573 37,000  Level FlightAware Transoceanic
12:07PM 46.0776 -143.1597 115° Southeast 498 573 37,000  Level FlightAware Transoceanic
12:08PM 46.0200 -142.9810 115° Southeast 498 573 37,000  Level FlightAware Transoceanic
12:08PM 46.0500 -143.0500 115° Southeast 482 555 37,000  Level Oakland Oceanic (ODAPS)
12:09PM 45.9622 -142.8026 115° Southeast 498 573 37,000  Level FlightAware Transoceanic
12:10PM 45.9041 -142.6246 115° Southeast 498 573 37,000  Level FlightAware Transoceanic
12:11PM 45.8457 -142.4471 115° Southeast 498 573 37,000  Level FlightAware Transoceanic
12:12PM 45.7870 -142.2698 115° Southeast 498 573 37,000  Level FlightAware Transoceanic
12:13PM 45.7281 -142.0930 116° Southeast 498 573 37,000  Level FlightAware Transoceanic
12:14PM 45.7091 -142.0207 116° Southeast 482 555 37,000  Level FlightAware Transoceanic
12:15PM 45.6513 -141.8504 116° Southeast 482 555 37,000  Level FlightAware Transoceanic
12:16PM 45.5934 -141.6804 116° Southeast 482 555 37,000  Level FlightAware Transoceanic
12:17PM 45.5351 -141.5108 116° Southeast 482 555 37,000  Level FlightAware Transoceanic
12:18PM 45.4767 -141.3415 116° Southeast 482 555 37,000  Level FlightAware Transoceanic
12:19PM 45.4179 -141.1726 116° Southeast 482 555 37,000  Level FlightAware Transoceanic
12:20PM 45.3590 -141.0040 117° Southeast 482 555 37,000  Level FlightAware Transoceanic
12:21PM 45.2998 -140.8358 117° Southeast 482 555 37,000  Level FlightAware Transoceanic
12:21PM 45.2333 -140.6667 116° Southeast 491 565 37,000  Level Oakland Oceanic (ODAPS)
12:22PM 45.2403 -140.6679 117° Southeast 482 555 37,000  Level FlightAware Transoceanic
12:23PM 45.1806 -140.5004 117° Southeast 482 555 37,000  Level FlightAware Transoceanic
12:24PM 45.1206 -140.3333 117° Southeast 482 555 37,000  Level FlightAware Transoceanic
12:25PM 45.0604 -140.1665 117° Southeast 482 555 37,000  Level FlightAware Transoceanic
12:25PM 45.0000 -140.0000 109° East 499 574 37,000  Level Oakland Oceanic (ODAPS)
12:26PM 45.0000 -140.0000 109° East 482 555 37,000  Level FlightAware Transoceanic
12:27PM 44.9543 -139.8128 109° East 482 555 37,000  Level FlightAware Transoceanic
12:28PM 44.9084 -139.6260 109° East 491 565 37,000  Level FlightAware Transoceanic
12:29PM 44.8621 -139.4394 109° East 491 565 37,000  Level FlightAware Transoceanic
12:30PM 44.8155 -139.2532 109° East 491 565 37,000  Level FlightAware Transoceanic
12:31PM 44.7686 -139.0672 110° East 491 565 37,000  Level FlightAware Transoceanic
12:32PM 44.7214 -138.8816 110° East 499 574 37,000  Level FlightAware Transoceanic
12:33PM 44.6739 -138.6962 110° East 499 574 37,000  Level FlightAware Transoceanic
12:34PM 44.6261 -138.5112 110° East 499 574 37,000  Level FlightAware Transoceanic
12:35PM 44.5780 -138.3264 110° East 499 574 37,000  Level FlightAware Transoceanic
12:35PM 44.5333 -138.1667 110° East 500 575 37,000  Level Oakland Oceanic (ODAPS)
12:36PM 44.5297 -138.1420 110° East 499 574 37,000  Level FlightAware Transoceanic
12:37PM 44.4810 -137.9579 110° East 499 574 37,000  Level FlightAware Transoceanic
12:38PM 44.4320 -137.7740 111° Southeast 499 574 37,000  Level FlightAware Transoceanic
12:39PM 44.3827 -137.5905 111° Southeast 499 574 37,000  Level FlightAware Transoceanic
12:40PM 44.3331 -137.4073 111° Southeast 499 574 37,000  Level FlightAware Transoceanic
12:41PM 44.2833 -137.2245 111° Southeast 499 574 37,000  Level FlightAware Transoceanic
12:42PM 44.2366 -137.0632 111° Southeast 500 575 37,000  Level FlightAware Transoceanic
12:43PM 44.1861 -136.8803 111° Southeast 500 575 37,000  Level FlightAware Transoceanic
12:44PM 44.1353 -136.6978 111° Southeast 500 575 37,000  Level FlightAware Transoceanic
12:45PM 44.0842 -136.5156 111° Southeast 500 575 37,000  Level FlightAware Transoceanic
12:46PM 44.0328 -136.3337 112° Southeast 500 575 37,000  Level FlightAware Transoceanic
12:47PM 43.9812 -136.1522 112° Southeast 500 575 37,000  Level FlightAware Transoceanic
12:48PM 43.9293 -135.9709 112° Southeast 500 575 37,000  Level FlightAware Transoceanic
12:49PM 43.8770 -135.7900 112° Southeast 500 575 37,000  Level FlightAware Transoceanic
12:49PM 43.8500 -135.6833 112° Southeast 500 575 37,000  Level Oakland Oceanic (ODAPS)
12:50PM 43.8245 -135.6094 112° Southeast 500 575 37,000  Level FlightAware Transoceanic
12:51PM 43.7718 -135.4291 112° Southeast 500 575 37,000  Level FlightAware Transoceanic
12:52PM 43.7187 -135.2491 112° Southeast 500 575 37,000  Level FlightAware Transoceanic
12:53PM 43.6653 -135.0694 112° Southeast 500 575 37,000  Level FlightAware Transoceanic
12:54PM 43.6117 -134.8901 113° Southeast 500 575 37,000  Level FlightAware Transoceanic
12:55PM 43.5797 -134.7729 113° Southeast 500 575 37,000  Level FlightAware Transoceanic
12:56PM 43.5248 -134.5918 113° Southeast 500 575 37,000  Level FlightAware Transoceanic
12:57PM 43.4696 -134.4110 113° Southeast 500 575 37,000  Level FlightAware Transoceanic
12:58PM 43.4141 -134.2305 113° Southeast 500 575 37,000  Level FlightAware Transoceanic
12:59PM 43.3584 -134.0504 113° Southeast 500 575 37,000  Level FlightAware Transoceanic
01:00PM 43.3023 -133.8707 113° Southeast 500 575 37,000  Level FlightAware Transoceanic
01:01PM 43.2460 -133.6912 113° Southeast 500 575 37,000  Level FlightAware Transoceanic
01:02PM 43.1894 -133.5121 114° Southeast 500 575 37,000  Level FlightAware Transoceanic
01:03PM 43.1325 -133.3333 114° Southeast 500 575 37,000  Level FlightAware Transoceanic
01:03PM 43.1167 -133.2667 114° Southeast 495 570 37,000  Level Oakland Oceanic (ODAPS)
01:04PM 43.0753 -133.1549 114° Southeast 500 575 37,000  Level FlightAware Transoceanic
01:05PM 43.0179 -132.9767 114° Southeast 500 575 37,000  Level FlightAware Transoceanic
01:06PM 42.9602 -132.7990 114° Southeast 500 575 37,000  Level FlightAware Transoceanic
01:07PM 42.9021 -132.6215 114° Southeast 500 575 37,000  Level FlightAware Transoceanic
01:08PM 42.8439 -132.4444 114° Southeast 500 575 37,000  Level FlightAware Transoceanic
01:09PM 42.7915 -132.2744 114° Southeast 495 570 37,000  Level FlightAware Transoceanic
01:10PM 42.7364 -132.1100 115° Southeast 495 570 37,000  Level FlightAware Transoceanic
01:11PM 42.6812 -131.9460 115° Southeast 495 570 37,000  Level FlightAware Transoceanic
01:12PM 42.6257 -131.7822 115° Southeast 495 570 37,000  Level FlightAware Transoceanic
01:13PM 42.5699 -131.6187 115° Southeast 495 570 37,000  Level FlightAware Transoceanic
01:14PM 42.5140 -131.4555 115° Southeast 495 570 37,000  Level FlightAware Transoceanic
01:15PM 42.4578 -131.2926 115° Southeast 495 570 37,000  Level FlightAware Transoceanic
01:16PM 42.4013 -131.1300 115° Southeast 495 570 37,000  Level FlightAware Transoceanic
01:17PM 42.3447 -130.9677 115° Southeast 495 570 37,000  Level FlightAware Transoceanic
01:17PM 42.3333 -130.9167 116° Southeast 494 568 37,000  Level Oakland Oceanic (ODAPS)
01:18PM 42.2878 -130.8057 115° Southeast 495 570 37,000  Level FlightAware Transoceanic
01:19PM 42.2307 -130.6440 116° Southeast 495 570 37,000  Level FlightAware Transoceanic
01:20PM 42.1734 -130.4825 116° Southeast 495 570 37,000  Level FlightAware Transoceanic
01:21PM 42.1158 -130.3214 116° Southeast 495 570 37,000  Level FlightAware Transoceanic
01:22PM 42.0580 -130.1606 116° Southeast 495 570 37,000  Level FlightAware Transoceanic
01:23PM 42.0000 -130.0000 120° Southeast 494 568 37,000  Level FlightAware Transoceanic
01:23PM 42.0000 -130.0000 120° Southeast 503 579 37,000  Level Oakland Oceanic (ODAPS)
01:24PM 41.9300 -129.8389 120° Southeast 494 568 37,000  Level FlightAware Transoceanic
01:25PM 41.8599 -129.6783 120° Southeast 494 568 37,000  Level FlightAware Transoceanic
01:26PM 41.7894 -129.5179 121° Southeast 494 568 37,000  Level FlightAware Transoceanic
01:27PM 41.7188 -129.3579 121° Southeast 494 568 37,000  Level FlightAware Transoceanic
01:28PM 41.6480 -129.1983 121° Southeast 494 568 37,000  Level FlightAware Transoceanic
01:29PM 41.5769 -129.0390 121° Southeast 503 579 37,000  Level FlightAware Transoceanic
01:30PM 41.5056 -128.8801 121° Southeast 503 579 37,000  Level FlightAware Transoceanic
01:31PM 41.4341 -128.7215 121° Southeast 503 579 37,000  Level FlightAware Transoceanic
01:31PM 41.4000 -128.6667 121° Southeast 510 587 37,000  Level Oakland Oceanic (ODAPS)
01:32PM 41.3624 -128.5633 121° Southeast 503 579 37,000  Level FlightAware Transoceanic
01:33PM 41.2904 -128.4054 121° Southeast 503 579 37,000  Level FlightAware Transoceanic
01:34PM 41.2182 -128.2478 121° Southeast 503 579 37,000  Level FlightAware Transoceanic
01:35PM 41.1459 -128.0906 122° Southeast 503 579 37,000  Level FlightAware Transoceanic
01:36PM 41.0733 -127.9338 122° Southeast 503 579 37,000  Level FlightAware Transoceanic
01:37PM 40.9848 -127.7528 121° Southeast 510 587 37,000  Level FlightAware Transoceanic
01:38PM 40.9149 -127.6016 122° Southeast 510 587 37,000  Level FlightAware Transoceanic
01:38PM 40.8408 -127.4472 118° Southeast 513 590 37,000  Level Oakland Center
01:39PM 40.8448 -127.4507 122° Southeast 510 587 37,000  Level FlightAware Transoceanic
01:39PM 40.7664 -127.2892 122° Southeast 511 588 37,000  Level Oakland Center
01:40PM 40.7745 -127.3001 122° Southeast 510 587 37,000  Level FlightAware Transoceanic
01:40PM 40.6906 -127.1319 122° Southeast 511 588 37,000  Level Oakland Center
01:41PM 40.7040 -127.1499 122° Southeast 510 587 37,000  Level FlightAware Transoceanic
01:41PM 40.6158 -126.9744 122° Southeast 510 587 37,000  Level Oakland Center
01:42PM 40.6333 -127.0000 118° Southeast 510 587 37,000  Level FlightAware Transoceanic
01:42PM 40.5436 -126.8169 121° Southeast 509 586 37,000  Level Oakland Center
01:43PM 40.5670 -126.8341 118° Southeast 510 587 37,000  Level FlightAware Transoceanic
01:44PM 40.5005 -126.6685 118° Southeast 510 587 37,000  Level FlightAware Transoceanic
01:49PM 40.0080 -125.9150 121° Southeast 499 574 37,000  Level FlightAware
01:49PM 39.9600 -125.8330 127° Southeast 499 574 37,000  Level FlightAware
01:50PM 39.9160 -125.7580 127° Southeast 499 574 37,000  Level FlightAware
01:50PM 39.8510 -125.6540 129° Southeast 500 575 37,000  Level FlightAware
01:51PM 39.7920 -125.5580 129° Southeast 500 575 37,000  Level FlightAware
01:52PM 39.7530 -125.4940 128° Southeast 500 575 37,000  Level FlightAware
01:52PM 39.6910 -125.3930 129° Southeast 499 574 37,000  Level FlightAware
01:53PM 39.6470 -125.3220 129° Southeast 499 574 37,000  Level FlightAware
01:53PM 39.5870 -125.2240 128° Southeast 498 573 37,000  Level FlightAware
01:54PM 39.5440 -125.1540 129° Southeast 498 573 37,000  Level FlightAware
01:55PM 39.4920 -125.0710 129° Southeast 497 572 37,000  Level FlightAware
01:55PM 39.4250 -124.9620 128° Southeast 497 572 37,000  Level FlightAware
01:56PM 39.3690 -124.8720 129° Southeast 495 570 37,000 -180 Level FlightAware
01:57PM 39.3170 -124.7890 129° Southeast 490 564 36,800 -1,200 Descending FlightAware
01:57PM 39.2700 -124.7140 129° Southeast 492 566 35,600 -1,980 Descending FlightAware
01:58PM 39.1970 -124.5970 129° Southeast 495 570 34,000 -1,680 Descending FlightAware
01:59PM 39.1450 -124.5150 129° Southeast 498 573 33,300 -960 Descending FlightAware
01:59PM 39.0960 -124.4370 129° Southeast 493 567 32,900 -780 Descending FlightAware
02:00PM 39.0310 -124.3350 129° Southeast 491 565 32,300 -840 Descending FlightAware
02:00PM 38.9850 -124.2620 129° Southeast 488 562 31,900 -720 Descending FlightAware
02:01PM 38.9410 -124.1920 129° Southeast 484 557 31,500 -900 Descending FlightAware
02:02PM 38.8880 -124.1100 130° Southeast 482 555 30,900 -1,020 Descending FlightAware
02:02PM 38.8340 -124.0260 130° Southeast 477 549 30,300 -1,080 Descending FlightAware
02:03PM 38.7820 -123.9430 129° Southeast 473 544 29,600 -1,260 Descending FlightAware
02:03PM 38.7400 -123.8790 130° Southeast 468 539 28,900 -1,620 Descending FlightAware
02:04PM 38.6980 -123.8130 129° Southeast 462 532 28,000 -1,680 Descending FlightAware
02:04PM 38.6510 -123.7400 129° Southeast 456 525 27,100 -1,740 Descending FlightAware
02:05PM 38.6050 -123.6700 130° Southeast 449 517 26,000 -1,920 Descending FlightAware
02:06PM 38.5570 -123.5950 129° Southeast 441 507 24,900 -1,860 Descending FlightAware
02:06PM 38.5110 -123.5250 130° Southeast 434 499 23,800 -1,740 Descending FlightAware
02:07PM 38.4680 -123.4590 130° Southeast 422 486 22,900 -1,740 Descending FlightAware
02:07PM 38.4230 -123.3890 129° Southeast 416 479 21,800 -1,680 Descending FlightAware
02:08PM 38.3810 -123.3250 130° Southeast 401 461 20,900 -1,680 Descending FlightAware
02:08PM 38.3450 -123.2690 129° Southeast 396 456 20,000 -1,860 Descending FlightAware
02:09PM 38.3000 -123.2010 130° Southeast 387 445 18,800 -1,920 Descending FlightAware
02:10PM 38.2590 -123.1390 130° Southeast 383 441 17,700 -1,800 Descending FlightAware
02:10PM 38.2230 -123.0850 130° Southeast 377 434 16,800 -1,680 Descending FlightAware
02:11PM 38.1870 -123.0300 130° Southeast 371 427 15,800 -1,800 Descending FlightAware
02:11PM 38.1450 -122.9660 130° Southeast 366 421 14,700 -1,860 Descending FlightAware
02:12PM 38.1050 -122.9070 131° Southeast 361 415 13,600 -1,860 Descending FlightAware
02:13PM 38.0640 -122.8510 133° Southeast 353 406 12,500 -1,740 Descending FlightAware
02:13PM 38.0230 -122.8070 140° Southeast 347 399 11,600 -1,320 Descending FlightAware
02:14PM 37.9840 -122.7650 140° Southeast 329 379 11,100 -660 Descending FlightAware
02:14PM 37.9470 -122.7240 139° Southeast 307 353 10,900 -180 Descending FlightAware
02:15PM 37.9070 -122.6820 140° Southeast 302 348 10,900  Level FlightAware
02:15PM 37.8700 -122.6420 140° Southeast 303 349 10,900  Level FlightAware
02:16PM 37.8310 -122.6000 140° Southeast 300 345 10,900  Level FlightAware
02:17PM 37.7910 -122.5570 140° Southeast 290 334 10,900  Level FlightAware
02:17PM 37.7733 -122.5380 140° Southeast 301 346 10,900  Level FlightAware ADS-B
02:18PM 37.7196 -122.4810 140° Southeast 267 307 10,900  Level FlightAware ADS-B
02:19PM 37.6674 -122.4250 140° Southeast 270 311 10,900  Level FlightAware ADS-B
02:19PM 37.6378 -122.3930 139° Southeast 270 311 10,900  Level FlightAware ADS-B
02:20PM 37.6182 -122.3720 140° Southeast 268 308 10,900  Level FlightAware ADS-B
02:20PM 37.6125 -122.3670 145° Southeast 267 307 10,900  Level FlightAware ADS-B
02:20PM 37.5963 -122.3560 152° Southeast 269 310 10,900 -720 Level FlightAware ADS-B
02:21PM 37.5627 -122.3360 155° Southeast 268 308 10,400 -1,080 Descending FlightAware ADS-B
02:21PM 37.5397 -122.3220 154° Southeast 267 307 10,000 -1,200 Descending FlightAware ADS-B
02:21PM 37.5220 -122.3120 156° South 266 306 9,700 -1,200 Descending FlightAware ADS-B
02:21PM 37.5049 -122.3020 155° Southeast 265 305 9,400 -1,140 Descending FlightAware ADS-B
02:22PM 37.4864 -122.2910 155° Southeast 263 303 9,100 -960 Descending FlightAware ADS-B
02:22PM 37.4697 -122.2810 155° Southeast 261 300 8,900 -1,020 Descending FlightAware ADS-B
02:22PM 37.4538 -122.2720 156° South 259 298 8,600 -1,380 Descending FlightAware ADS-B
02:22PM 37.4503 -122.2690 146° Southeast 259 298 8,500 -900 Descending FlightAware ADS-B
02:22PM 37.4472 -122.2670 153° Southeast 259 298 8,500 -900 Level FlightAware ADS-B
02:22PM 37.4435 -122.2620 133° Southeast 258 297 8,400 -780 Descending FlightAware ADS-B
02:22PM 37.4405 -122.2580 133° Southeast 257 296 8,400 -900 Level FlightAware ADS-B
02:22PM 37.4381 -122.2540 127° Southeast 255 293 8,300 -1,020 Descending FlightAware ADS-B
02:23PM 37.4281 -122.2360 125° Southeast 254 292 8,100 -1,020 Descending FlightAware ADS-B
02:23PM 37.4179 -122.2170 124° Southeast 253 291 7,800 -1,080 Descending FlightAware ADS-B
02:23PM 37.4095 -122.2010 123° Southeast 251 289 7,600 -1,020 Descending FlightAware ADS-B
02:23PM 37.3976 -122.1780 123° Southeast 249 287 7,300 -1,140 Descending FlightAware ADS-B
02:24PM 37.3957 -122.1730 116° Southeast 248 285 7,200 -780 Descending FlightAware ADS-B
02:24PM 37.3943 -122.1680 109° East 248 285 7,200 -780 Level FlightAware ADS-B
02:24PM 37.3933 -122.1620 102° East 247 284 7,100 -780 Descending FlightAware ADS-B
02:24PM 37.3930 -122.1570 94° East 246 283 7,100 -780 Level FlightAware ADS-B
02:24PM 37.3934 -122.1510 85° East 246 283 7,000 -900 Descending FlightAware ADS-B
02:24PM 37.3941 -122.1470 78° East 245 282 7,000 -1,020 Level FlightAware ADS-B
02:24PM 37.3953 -122.1420 73° East 245 282 6,900 -900 Descending FlightAware ADS-B
02:24PM 37.3970 -122.1370 67° East 245 282 6,900 -780 Level FlightAware ADS-B
02:24PM 37.3989 -122.1330 59° Northeast 244 281 6,800 -780 Descending FlightAware ADS-B
02:24PM 37.4017 -122.1280 55° Northeast 242 278 6,800 -1,020 Level FlightAware ADS-B
02:24PM 37.4111 -122.1120 54° Northeast 236 272 6,500 -1,080 Descending FlightAware ADS-B
02:25PM 37.4211 -122.0960 52° Northeast 231 266 6,300 -780 Descending FlightAware ADS-B
02:25PM 37.4413 -122.0640 52° Northeast 218 251 5,900 -660 Descending FlightAware ADS-B
02:25PM 37.4459 -122.0580 46° Northeast 217 250 5,900  Level FlightAware ADS-B
02:25PM 37.4489 -122.0560 28° Northeast 218 251 5,900  Level FlightAware ADS-B
02:25PM 37.4524 -122.0530 34° Northeast 217 250 5,900  Level FlightAware ADS-B
02:25PM 37.4560 -122.0510 24° Northeast 217 250 5,900 -720 Level FlightAware ADS-B
02:26PM 37.4608 -122.0490 18° North 216 249 5,800 -720 Descending FlightAware ADS-B
02:26PM 37.4647 -122.0470 22° Northeast 216 249 5,800 -780 Level FlightAware ADS-B
02:26PM 37.4688 -122.0470 360° North 215 247 5,700 -1,500 Descending FlightAware ADS-B
02:26PM 37.4726 -122.0470 360° North 214 246 5,600 -900 Descending FlightAware ADS-B
02:26PM 37.4759 -122.0470 360° North 212 244 5,600 -900 Level FlightAware ADS-B
02:26PM 37.4791 -122.0490 334° Northwest 211 243 5,500 -1,500 Descending FlightAware ADS-B
02:26PM 37.4828 -122.0510 337° Northwest 208 239 5,400 -780 Descending FlightAware ADS-B
02:26PM 37.4855 -122.0540 319° Northwest 205 236 5,400 -780 Level FlightAware ADS-B
02:26PM 37.4881 -122.0570 318° Northwest 204 235 5,300 -1,200 Descending FlightAware ADS-B
02:26PM 37.4924 -122.0630 312° West 203 234 5,200 -960 Descending FlightAware ADS-B
02:26PM 37.4965 -122.0690 311° West 205 236 5,100 -1,020 Descending FlightAware ADS-B
02:26PM 37.5003 -122.0730 320° Northwest 204 235 5,000 -1,200 Descending FlightAware ADS-B
02:26PM 37.5041 -122.0760 328° Northwest 203 234 4,900 -1,020 Descending FlightAware ADS-B
02:27PM 37.5140 -122.0850 324° Northwest 198 228 4,700 -660 Descending FlightAware ADS-B
02:27PM 37.5256 -122.0940 328° Northwest 189 217 4,600 -600 Descending FlightAware ADS-B
02:27PM 37.5293 -122.0970 327° Northwest 186 214 4,500 -720 Descending FlightAware ADS-B
02:27PM 37.5314 -122.0990 323° Northwest 183 211 4,500 -900 Level FlightAware ADS-B
02:27PM 37.5338 -122.1020 315° West 180 207 4,400 -900 Descending FlightAware ADS-B
02:27PM 37.5356 -122.1040 319° Northwest 178 205 4,400 -720 Level FlightAware ADS-B
02:27PM 37.5377 -122.1090 298° West 172 198 4,300 -1,380 Descending FlightAware ADS-B
02:27PM 37.5385 -122.1130 284° West 169 194 4,200 -1,740 Descending FlightAware ADS-B
02:27PM 37.5388 -122.1160 277° West 168 193 4,100 -1,380 Descending FlightAware ADS-B
02:27PM 37.5386 -122.1220 268° West 166 191 4,000 -960 Descending FlightAware ADS-B
02:28PM 37.5377 -122.1290 261° West 166 191 3,900 -1,320 Descending FlightAware ADS-B
02:28PM 37.5369 -122.1350 260° West 168 193 3,700 -1,440 Descending FlightAware ADS-B
02:28PM 37.5366 -122.1400 266° West 169 194 3,600 -1,200 Descending FlightAware ADS-B
02:28PM 37.5363 -122.1560 269° West 171 197 3,300 -1,020 Descending FlightAware ADS-B
02:28PM 37.5362 -122.1710 270° West 169 194 3,100 -900 Descending FlightAware ADS-B
02:28PM 37.5368 -122.1760 279° West 171 197 3,000 -1,740 Descending FlightAware ADS-B
02:28PM 37.5377 -122.1780 300° West 173 199 2,900 -720 Descending FlightAware ADS-B
02:29PM 37.5434 -122.1910 299° West 172 198 2,800 -540 Descending FlightAware ADS-B
02:29PM 37.5472 -122.1990 301° West 170 196 2,700 -840 Descending FlightAware ADS-B
02:29PM 37.5517 -122.2100 297° West 169 194 2,500 -900 Descending FlightAware ADS-B
02:29PM 37.5574 -122.2240 297° West 169 194 2,300 -1,020 Descending FlightAware ADS-B
02:30PM 37.5632 -122.2380 298° West 166 191 2,000 -1,020 Descending FlightAware ADS-B
02:30PM 37.5685 -122.2500 299° West 166 191 1,800 -780 Descending FlightAware ADS-B
02:30PM 37.5743 -122.2640 298° West 164 189 1,600 -780 Descending FlightAware ADS-B
02:30PM 37.5797 -122.2770 298° West 163 188 1,400 -1,020 Descending FlightAware ADS-B
02:30PM 37.5830 -122.2850 297° West 161 185 1,200 -900 Descending FlightAware ADS-B
02:31PM 37.5872 -122.2950 298° West 157 181 1,100 -900 Descending FlightAware ADS-B
02:31PM 37.5923 -122.3070 298° West 141 162 800 -900 Descending FlightAware ADS-B
02:31PM 37.5974 -122.3190 298° West 130 150 600 -780 Descending FlightAware ADS-B
02:31PM 37.6014 -122.3290 297° West 130 150 400 -600 Descending FlightAware ADS-B
02:32PM 37.6058 -122.3390 299° West 129 148 300 -600 Descending FlightAware ADS-B
02:32PM 37.6078 -122.3440 297° West 128 147 200 -900 Descending FlightAware ADS-B
02:32PM 37.6116 -122.3530 298° West 128 147 -900 Descending FlightAware ADS-B
02:32PM 37.6160 -122.3630 299° West 120 138  Level FlightAware ADS-B